createdAt,value
2017-09-08T00:02:22.796Z,4.10
2017-09-08T00:04:51.001Z,4.55
2017-09-08T00:07:19.997Z,4.78
2017-09-08T00:09:48.207Z,4.57
2017-09-08T00:12:16.401Z,4.45
2017-09-08T00:14:44.616Z,5.30
2017-09-08T00:17:13.573Z,5.43
2017-09-08T00:19:41.798Z,4.80
2017-09-08T00:22:10.087Z,5.10
2017-09-08T00:24:38.297Z,4.97
2017-09-08T00:27:06.513Z,4.62
2017-09-08T00:29:34.711Z,5.00
2017-09-08T00:32:05.139Z,4.93
2017-09-08T00:34:33.394Z,5.37
2017-09-08T00:37:01.599Z,4.62
2017-09-08T00:39:30.180Z,5.28
2017-09-08T00:41:58.390Z,5.30
2017-09-08T00:44:26.723Z,5.75
2017-09-08T00:46:55.006Z,5.93
2017-09-08T00:49:23.192Z,5.93
2017-09-08T00:51:51.714Z,5.20
2017-09-08T00:54:20.724Z,5.28
2017-09-08T00:56:49.018Z,5.28
2017-09-08T00:59:17.234Z,5.18
2017-09-08T01:01:45.432Z,5.82
2017-09-08T01:04:14.422Z,5.70
2017-09-08T01:06:43.376Z,6.57
2017-09-08T01:09:11.567Z,6.43
2017-09-08T01:11:39.767Z,5.53
2017-09-08T01:14:08.022Z,6.35
2017-09-08T01:16:36.195Z,6.78
2017-09-08T01:19:04.402Z,5.82
2017-09-08T01:21:32.636Z,7.40
2017-09-08T01:24:00.829Z,5.80
2017-09-08T01:26:29.808Z,6.90
2017-09-08T01:28:58.976Z,7.25
2017-09-08T01:31:27.170Z,6.80
2017-09-08T01:33:55.552Z,5.87
2017-09-08T01:36:23.747Z,5.43
2017-09-08T01:38:51.939Z,6.10
2017-09-08T01:41:20.214Z,6.30
2017-09-08T01:43:48.410Z,6.78
2017-09-08T01:46:16.588Z,6.53
2017-09-08T01:48:45.486Z,6.22
2017-09-08T01:51:13.958Z,5.93
2017-09-08T01:53:42.162Z,6.03
2017-09-08T01:56:10.419Z,6.05
2017-09-08T01:58:38.652Z,7.32
2017-09-08T02:01:06.898Z,6.18
2017-09-08T02:03:38.415Z,6.55
2017-09-08T02:06:08.394Z,7.82
2017-09-08T02:08:36.699Z,6.45
2017-09-08T02:11:04.945Z,7.62
2017-09-08T02:13:33.137Z,6.53
2017-09-08T02:16:01.321Z,7.00
2017-09-08T02:18:29.543Z,8.15
2017-09-08T02:20:58.510Z,7.43
2017-09-08T02:23:26.694Z,7.40
2017-09-08T02:25:55.659Z,7.10
2017-09-08T02:28:23.863Z,8.35
2017-09-08T02:30:52.818Z,8.27
2017-09-08T02:33:20.997Z,7.28
2017-09-08T02:35:49.203Z,6.82
2017-09-08T02:38:18.153Z,7.15
2017-09-08T02:40:46.339Z,7.53
2017-09-08T02:43:14.539Z,7.68
2017-09-08T02:45:43.785Z,7.75
2017-09-08T02:48:12.006Z,6.85
2017-09-08T02:50:41.043Z,7.12
2017-09-08T02:53:09.248Z,7.68
2017-09-08T02:55:37.483Z,8.60
2017-09-08T02:58:05.687Z,8.20
2017-09-08T03:00:33.899Z,8.10
2017-09-08T03:03:02.084Z,7.43
2017-09-08T03:05:30.340Z,8.13
2017-09-08T03:07:58.539Z,7.72
2017-09-08T03:10:26.728Z,6.05
2017-09-08T03:12:55.189Z,7.57
2017-09-08T03:15:23.381Z,7.65
2017-09-08T03:17:51.589Z,7.40
2017-09-08T03:20:19.815Z,8.32
2017-09-08T03:22:48.003Z,7.82
2017-09-08T03:25:16.616Z,8.77
2017-09-08T03:27:44.848Z,6.90
2017-09-08T03:30:13.057Z,7.60
2017-09-08T03:32:41.266Z,8.10
2017-09-08T03:35:09.551Z,7.22
2017-09-08T03:37:38.500Z,7.45
2017-09-08T03:40:06.701Z,6.68
2017-09-08T03:42:34.922Z,7.80
2017-09-08T03:45:03.095Z,9.30
2017-09-08T03:47:31.289Z,7.60
2017-09-08T03:49:59.477Z,8.98
2017-09-08T03:52:27.667Z,8.73
2017-09-08T03:54:56.641Z,9.05
2017-09-08T03:57:24.854Z,7.65
2017-09-08T03:59:53.044Z,8.90
2017-09-08T04:02:21.251Z,9.23
2017-09-08T04:04:49.458Z,7.70
2017-09-08T04:07:17.662Z,8.00
2017-09-08T04:09:45.855Z,9.13
2017-09-08T04:12:14.049Z,8.52
2017-09-08T04:14:42.251Z,8.65
2017-09-08T04:17:10.461Z,8.82
2017-09-08T04:19:38.647Z,7.32
2017-09-08T04:22:06.842Z,7.15
2017-09-08T04:24:35.064Z,8.05
2017-09-08T04:27:04.055Z,7.28
2017-09-08T04:29:33.043Z,7.20
2017-09-08T04:32:02.005Z,7.00
2017-09-08T04:34:30.197Z,8.45
2017-09-08T04:36:59.830Z,7.97
2017-09-08T04:39:28.023Z,8.27
2017-09-08T04:41:56.228Z,7.35
2017-09-08T04:44:24.435Z,7.25
2017-09-08T04:46:52.633Z,7.37
2017-09-08T04:49:20.837Z,8.32
2017-09-08T04:51:49.055Z,8.85
2017-09-08T04:54:18.007Z,7.65
2017-09-08T04:56:46.220Z,7.10
2017-09-08T04:59:14.433Z,7.82
2017-09-08T05:01:42.627Z,6.85
2017-09-08T05:04:10.815Z,6.62
2017-09-08T05:06:39.659Z,7.80
2017-09-08T05:09:08.744Z,7.50
2017-09-08T05:11:36.919Z,7.97
2017-09-08T05:14:05.098Z,8.45
2017-09-08T05:16:33.307Z,7.60
2017-09-08T05:19:01.531Z,6.87
2017-09-08T05:21:29.769Z,7.57
2017-09-08T05:23:57.968Z,7.07
2017-09-08T05:26:27.413Z,7.50
2017-09-08T05:28:55.728Z,7.10
2017-09-08T05:31:23.921Z,7.47
2017-09-08T05:33:52.887Z,7.30
2017-09-08T05:36:21.105Z,7.78
2017-09-08T05:38:49.656Z,8.00
2017-09-08T05:41:18.624Z,7.65
2017-09-08T05:43:46.843Z,7.43
2017-09-08T05:46:15.042Z,7.57
2017-09-08T05:48:43.250Z,7.40
2017-09-08T05:51:11.467Z,7.60
2017-09-08T05:53:39.669Z,6.53
2017-09-08T05:56:07.851Z,7.37
2017-09-08T05:58:36.050Z,7.95
2017-09-08T06:01:04.263Z,7.72
2017-09-08T06:03:32.433Z,7.57
2017-09-08T06:06:00.635Z,7.30
2017-09-08T06:08:28.851Z,7.95
2017-09-08T06:10:57.043Z,7.32
2017-09-08T06:13:25.288Z,6.75
2017-09-08T06:15:53.509Z,7.05
2017-09-08T06:18:21.700Z,7.65
2017-09-08T06:20:49.891Z,6.72
2017-09-08T06:23:18.108Z,6.95
2017-09-08T06:25:46.344Z,6.85
2017-09-08T06:28:14.550Z,6.55
2017-09-08T06:30:43.531Z,6.60
2017-09-08T06:33:11.750Z,7.12
2017-09-08T06:35:39.974Z,7.05
2017-09-08T06:38:08.176Z,7.30
2017-09-08T06:40:37.129Z,7.85
2017-09-08T06:43:05.325Z,7.32
2017-09-08T06:45:34.675Z,7.50
2017-09-08T06:48:02.862Z,6.20
2017-09-08T06:50:31.088Z,6.50
2017-09-08T06:53:00.047Z,7.50
2017-09-08T06:55:28.219Z,8.90
2017-09-08T06:57:56.387Z,7.22
2017-09-08T07:00:24.626Z,7.75
2017-09-08T07:02:52.862Z,8.95
2017-09-08T07:05:21.837Z,7.07
2017-09-08T07:07:50.087Z,6.62
2017-09-08T07:10:18.298Z,7.37
2017-09-08T07:12:48.168Z,8.13
2017-09-08T07:15:16.378Z,9.00
2017-09-08T07:17:44.586Z,7.35
2017-09-08T07:20:12.782Z,7.45
2017-09-08T07:22:40.974Z,9.25
2017-09-08T07:25:09.175Z,7.22
2017-09-08T07:27:37.364Z,7.70
2017-09-08T07:30:05.555Z,8.25
2017-09-08T07:32:33.762Z,8.15
2017-09-08T07:35:01.951Z,7.62
2017-09-08T07:37:30.260Z,7.80
2017-09-08T07:39:59.406Z,7.32
2017-09-08T07:42:29.417Z,7.93
2017-09-08T07:44:57.650Z,7.55
2017-09-08T07:47:25.867Z,7.53
2017-09-08T07:49:54.215Z,7.60
2017-09-08T07:52:22.438Z,7.03
2017-09-08T07:54:50.662Z,8.23
2017-09-08T07:57:18.876Z,6.72
2017-09-08T07:59:47.085Z,7.75
2017-09-08T08:02:16.127Z,7.37
2017-09-08T08:04:44.359Z,7.50
2017-09-08T08:07:14.166Z,8.25
2017-09-08T08:09:43.145Z,7.00
2017-09-08T08:12:11.398Z,7.78
2017-09-08T08:14:39.672Z,6.75
2017-09-08T08:17:08.100Z,8.13
2017-09-08T08:19:36.331Z,6.18
2017-09-08T08:22:04.983Z,7.20
2017-09-08T08:24:33.226Z,7.00
2017-09-08T08:27:02.199Z,6.60
2017-09-08T08:29:30.398Z,6.97
2017-09-08T08:31:58.645Z,7.00
2017-09-08T08:34:26.868Z,8.27
2017-09-08T08:36:55.060Z,6.87
2017-09-08T08:39:23.863Z,7.03
2017-09-08T08:41:52.115Z,6.28
2017-09-08T08:44:20.383Z,7.53
2017-09-08T08:46:48.640Z,7.05
2017-09-08T08:49:16.866Z,6.15
2017-09-08T08:51:45.106Z,7.00
2017-09-08T08:54:13.287Z,7.28
2017-09-08T08:56:41.512Z,6.35
2017-09-08T08:59:10.682Z,7.35
2017-09-08T09:01:40.102Z,6.75
2017-09-08T09:04:08.303Z,6.30
2017-09-08T09:06:36.496Z,6.85
2017-09-08T09:09:04.667Z,6.60
2017-09-08T09:11:32.846Z,6.05
2017-09-08T09:14:01.044Z,6.22
2017-09-08T09:16:29.266Z,6.55
2017-09-08T09:18:57.541Z,7.07
2017-09-08T09:21:25.798Z,6.70
2017-09-08T09:23:54.780Z,6.90
2017-09-08T09:26:22.990Z,6.18
2017-09-08T09:28:51.171Z,6.75
2017-09-08T09:31:19.404Z,7.78
2017-09-08T09:33:47.693Z,6.37
2017-09-08T09:36:16.727Z,6.15
2017-09-08T09:38:45.043Z,5.95
2017-09-08T09:41:13.340Z,6.18
2017-09-08T09:43:42.369Z,6.78
2017-09-08T09:46:10.583Z,5.87
2017-09-08T09:48:38.797Z,6.28
2017-09-08T09:51:07.184Z,6.47
2017-09-08T09:53:35.383Z,6.10
2017-09-08T09:56:03.611Z,6.12
2017-09-08T09:58:33.183Z,6.47
2017-09-08T10:01:01.400Z,6.43
2017-09-08T10:03:29.726Z,6.45
2017-09-08T10:05:57.919Z,6.12
2017-09-08T10:08:26.481Z,6.00
2017-09-08T10:10:54.655Z,5.75
2017-09-08T10:13:22.853Z,5.90
2017-09-08T10:15:51.074Z,5.12
2017-09-08T10:18:19.279Z,6.07
2017-09-08T10:20:47.484Z,6.35
2017-09-08T10:23:16.655Z,6.25
2017-09-08T10:25:44.841Z,5.32
2017-09-08T10:28:14.194Z,5.85
2017-09-08T10:30:42.377Z,6.10
2017-09-08T10:33:10.578Z,6.28
2017-09-08T10:35:38.782Z,6.40
2017-09-08T10:38:07.771Z,6.00
2017-09-08T10:40:36.744Z,5.65
2017-09-08T10:43:05.330Z,6.30
2017-09-08T10:45:33.518Z,6.20
2017-09-08T10:48:02.495Z,5.28
2017-09-08T10:50:30.741Z,4.55
2017-09-08T10:52:58.915Z,5.15
2017-09-08T10:55:27.133Z,5.10
2017-09-08T10:57:55.339Z,5.07
2017-09-08T11:00:23.552Z,5.15
2017-09-08T11:02:51.739Z,4.70
2017-09-08T11:05:19.933Z,4.97
2017-09-08T11:07:48.180Z,5.00
2017-09-08T11:10:16.413Z,4.80
2017-09-08T11:12:44.627Z,4.32
2017-09-08T11:15:13.958Z,4.87
2017-09-08T11:17:42.157Z,5.10
2017-09-08T11:20:10.368Z,4.75
2017-09-08T11:22:38.638Z,4.93
2017-09-08T11:25:06.826Z,5.28
2017-09-08T11:27:35.799Z,4.90
2017-09-08T11:30:03.998Z,5.28
2017-09-08T11:32:38.702Z,5.12
2017-09-08T11:35:12.317Z,5.43
2017-09-08T11:37:40.521Z,4.55
2017-09-08T11:40:08.707Z,4.18
2017-09-08T11:42:37.306Z,5.10
2017-09-08T11:45:05.519Z,4.35
2017-09-08T11:47:33.699Z,5.07
2017-09-08T11:50:02.653Z,4.87
2017-09-08T11:52:30.847Z,4.55
2017-09-08T11:54:59.501Z,4.55
2017-09-08T11:57:27.712Z,6.32
2017-09-08T11:59:56.674Z,4.95
2017-09-08T12:02:24.907Z,5.15
2017-09-08T12:04:53.108Z,4.78
2017-09-08T12:07:21.472Z,4.55
2017-09-08T12:09:49.664Z,4.90
2017-09-08T12:12:17.923Z,5.18
2017-09-08T12:14:46.138Z,4.87
2017-09-08T12:17:14.343Z,4.00
2017-09-08T12:19:43.349Z,5.20
2017-09-08T12:22:11.560Z,4.62
2017-09-08T12:24:39.842Z,4.60
2017-09-08T12:27:08.078Z,4.55
2017-09-08T12:29:36.296Z,4.10
2017-09-08T12:32:04.580Z,4.50
2017-09-08T12:34:33.649Z,5.03
2017-09-08T12:37:01.875Z,4.55
2017-09-08T12:39:31.055Z,4.53
2017-09-08T12:41:59.277Z,4.35
2017-09-08T12:44:27.521Z,4.12
2017-09-08T12:46:56.538Z,4.43
2017-09-08T12:49:24.761Z,4.35
2017-09-08T12:51:52.940Z,4.97
2017-09-08T12:54:21.146Z,4.75
2017-09-08T12:56:49.353Z,4.57
2017-09-08T12:59:17.561Z,4.40
2017-09-08T13:01:46.539Z,4.12
2017-09-08T13:04:14.922Z,4.45
2017-09-08T13:06:43.114Z,4.12
2017-09-08T13:09:12.193Z,4.28
2017-09-08T13:11:40.398Z,4.50
2017-09-08T13:14:10.010Z,4.20
2017-09-08T13:16:38.222Z,4.45
2017-09-08T13:19:06.440Z,4.55
2017-09-08T13:21:35.189Z,4.28
2017-09-08T13:24:05.997Z,4.65
2017-09-08T13:26:34.218Z,4.97
2017-09-08T13:29:02.476Z,4.00
2017-09-08T13:31:30.742Z,4.55
2017-09-08T13:33:58.986Z,4.12
2017-09-08T13:36:27.180Z,4.32
2017-09-08T13:38:55.395Z,4.65
2017-09-08T13:41:24.360Z,4.10
2017-09-08T13:43:52.622Z,4.60
2017-09-08T13:46:20.856Z,4.53
2017-09-08T13:48:49.959Z,3.65
2017-09-08T13:51:18.208Z,3.95
2017-09-08T13:53:47.205Z,4.32
2017-09-08T13:56:16.199Z,4.18
2017-09-08T13:58:45.230Z,3.50
2017-09-08T14:01:13.466Z,3.53
2017-09-08T14:03:42.434Z,4.03
2017-09-08T14:06:10.676Z,3.72
2017-09-08T14:08:38.866Z,4.00
2017-09-08T14:11:07.114Z,3.70
2017-09-08T14:13:35.366Z,3.83
2017-09-08T14:16:03.571Z,3.03
2017-09-08T14:18:31.760Z,4.00
2017-09-08T14:21:00.000Z,3.15
2017-09-08T14:23:28.215Z,3.37
2017-09-08T14:25:56.471Z,3.95
2017-09-08T14:28:24.698Z,3.00
2017-09-08T14:30:52.940Z,3.70
2017-09-08T14:33:21.192Z,3.00
2017-09-08T14:35:49.435Z,3.20
2017-09-08T14:38:18.389Z,3.42
2017-09-08T14:40:46.608Z,3.10
2017-09-08T14:43:14.867Z,3.05
2017-09-08T14:45:43.854Z,3.10
2017-09-08T14:48:13.171Z,2.75
2017-09-08T14:50:42.206Z,2.97
2017-09-08T14:53:10.524Z,3.30
2017-09-08T14:55:38.813Z,3.22
2017-09-08T14:58:07.888Z,3.05
2017-09-08T15:00:36.073Z,2.90
2017-09-08T15:03:05.054Z,3.08
2017-09-08T15:05:33.294Z,2.67
2017-09-08T15:08:01.547Z,2.90
2017-09-08T15:10:29.756Z,2.70
2017-09-08T15:12:57.965Z,2.95
2017-09-08T15:15:26.955Z,2.80
2017-09-08T15:17:55.911Z,2.97
2017-09-08T15:20:24.142Z,3.28
2017-09-08T15:22:52.351Z,3.40
2017-09-08T15:25:20.559Z,2.95
2017-09-08T15:27:49.219Z,3.00
2017-09-08T15:30:17.518Z,3.30
2017-09-08T15:32:45.735Z,3.08
2017-09-08T15:35:13.925Z,3.00
2017-09-08T15:37:42.173Z,3.45
2017-09-08T15:40:10.763Z,3.65
2017-09-08T15:42:38.984Z,3.20
2017-09-08T15:45:07.197Z,3.95
2017-09-08T15:47:35.430Z,3.22
2017-09-08T15:50:03.771Z,3.40
2017-09-08T15:52:31.975Z,4.05
2017-09-08T15:55:00.351Z,3.40
2017-09-08T15:57:28.668Z,3.55
2017-09-08T15:59:58.083Z,3.37
2017-09-08T16:02:26.383Z,3.20
2017-09-08T16:04:55.406Z,3.40
2017-09-08T16:07:24.464Z,3.28
2017-09-08T16:09:52.805Z,3.60
2017-09-08T16:12:21.819Z,3.30
2017-09-08T16:14:51.261Z,3.08
2017-09-08T16:17:19.927Z,3.30
2017-09-08T16:19:48.724Z,2.90
2017-09-08T16:22:33.688Z,3.35
2017-09-08T16:25:01.962Z,3.60
2017-09-08T16:27:35.181Z,3.35
2017-09-08T16:30:04.422Z,3.40
2017-09-08T16:32:33.032Z,3.37
2017-09-08T16:35:01.425Z,3.55
2017-09-08T16:37:29.631Z,3.37
2017-09-08T16:39:58.669Z,3.20
2017-09-08T16:42:26.892Z,3.65
2017-09-08T16:44:55.949Z,3.10
2017-09-08T16:47:24.229Z,3.60
2017-09-08T16:49:53.550Z,3.25
2017-09-08T16:52:21.759Z,3.20
2017-09-08T16:54:50.446Z,3.37
2017-09-08T16:57:19.615Z,3.42
2017-09-08T16:59:48.632Z,3.20
2017-09-08T17:02:16.869Z,3.40
2017-09-08T17:04:45.074Z,3.10
2017-09-08T17:07:24.378Z,3.70
2017-09-08T17:09:53.378Z,3.30
2017-09-08T17:12:22.442Z,2.95
2017-09-08T17:14:50.892Z,3.20
2017-09-08T17:17:19.956Z,3.12
2017-09-08T17:19:48.416Z,3.87
2017-09-08T17:22:16.696Z,3.45
2017-09-08T17:24:45.782Z,3.55
2017-09-08T17:27:14.078Z,3.50
2017-09-08T17:29:43.202Z,2.90
2017-09-08T17:32:11.543Z,3.67
2017-09-08T17:34:40.386Z,3.67
2017-09-08T17:37:08.681Z,3.25
2017-09-08T17:39:36.942Z,3.83
2017-09-08T17:42:05.180Z,3.03
2017-09-08T17:44:34.727Z,3.58
2017-09-08T17:47:10.952Z,4.00
2017-09-08T17:49:41.329Z,3.33
2017-09-08T17:55:42.327Z,4.15
2017-09-08T17:58:19.098Z,3.33
2017-09-08T18:00:51.230Z,3.65
2017-09-08T18:03:21.381Z,3.40
2017-09-08T18:05:50.593Z,3.80
2017-09-08T18:08:18.900Z,3.85
2017-09-08T18:10:49.278Z,3.25
2017-09-08T18:16:29.768Z,3.50
2017-09-08T18:18:58.754Z,3.40
2017-09-08T18:21:27.113Z,3.65
2017-09-08T18:24:03.470Z,3.80
2017-09-08T18:26:32.515Z,3.35
2017-09-08T18:29:02.344Z,3.67
2017-09-08T18:31:30.892Z,3.75
2017-09-08T18:34:00.175Z,3.60
2017-09-08T18:36:31.082Z,3.62
2017-09-08T18:38:59.991Z,3.45
2017-09-08T18:41:29.931Z,4.20
2017-09-08T18:43:58.283Z,3.35
2017-09-08T18:46:27.333Z,3.55
2017-09-08T18:48:56.680Z,3.60
2017-09-08T18:51:25.759Z,3.75
2017-09-08T18:53:54.080Z,3.58
2017-09-08T18:56:22.412Z,3.97
2017-09-08T18:58:51.057Z,3.83
2017-09-08T19:01:39.006Z,3.97
2017-09-08T19:04:08.219Z,3.25
2017-09-08T19:06:36.603Z,3.60
2017-09-08T19:09:04.972Z,3.40
2017-09-08T19:11:33.937Z,3.50
2017-09-08T19:14:02.298Z,3.30
2017-09-08T19:16:30.650Z,4.20
2017-09-08T19:18:59.815Z,3.87
2017-09-08T19:21:32.848Z,4.00
2017-09-08T19:24:04.310Z,4.00
2017-09-08T19:26:32.650Z,4.15
2017-09-08T19:29:01.738Z,3.72
2017-09-08T19:31:30.832Z,3.50
2017-09-08T19:34:00.106Z,3.35
2017-09-08T19:36:29.294Z,3.22
2017-09-08T19:38:57.587Z,3.50
2017-09-08T19:41:25.945Z,3.20
2017-09-08T19:43:54.289Z,3.70
2017-09-08T19:46:23.528Z,2.80
2017-09-08T19:48:51.920Z,2.85
2017-09-08T19:51:20.227Z,2.70
2017-09-08T19:53:50.156Z,3.60
2017-09-08T19:56:18.535Z,3.20
2017-09-08T19:58:49.899Z,3.20
2017-09-08T20:01:18.335Z,3.10
2017-09-08T20:03:51.038Z,3.10
2017-09-08T20:06:19.357Z,2.80
2017-09-08T20:08:47.752Z,3.25
2017-09-08T20:11:16.985Z,3.03
2017-09-08T20:13:45.407Z,2.55
2017-09-08T20:16:14.803Z,2.75
2017-09-08T20:18:48.779Z,2.55
2017-09-08T20:21:17.423Z,2.90
2017-09-08T20:23:46.648Z,2.55
2017-09-08T20:26:16.664Z,2.78
2017-09-08T20:28:46.679Z,3.22
2017-09-08T20:31:17.307Z,2.70
2017-09-08T20:33:48.260Z,2.50
2017-09-08T20:36:18.203Z,2.90
2017-09-08T20:38:46.552Z,2.90
2017-09-08T20:41:14.849Z,3.08
2017-09-08T20:43:43.209Z,3.03
2017-09-08T20:46:14.011Z,3.15
2017-09-08T20:48:43.284Z,2.72
2017-09-08T20:51:31.265Z,2.50
2017-09-08T20:54:00.072Z,2.70
2017-09-08T20:56:28.848Z,2.40
2017-09-08T20:58:57.672Z,2.95
2017-09-08T21:01:27.035Z,3.20
2017-09-08T21:03:57.196Z,2.87
2017-09-08T21:06:26.146Z,2.95
2017-09-08T21:08:54.368Z,2.87
2017-09-08T21:11:22.672Z,3.00
2017-09-08T21:13:51.872Z,2.67
2017-09-08T21:16:21.718Z,3.35
2017-09-08T21:18:50.029Z,3.30
2017-09-08T21:21:18.686Z,2.62
2017-09-08T21:26:21.633Z,2.60
2017-09-08T21:28:50.506Z,2.60
2017-09-08T21:31:18.738Z,2.53
2017-09-08T21:33:49.749Z,2.97
2017-09-08T21:36:18.048Z,3.12
2017-09-08T21:38:46.451Z,2.58
2017-09-08T21:41:21.735Z,3.10
2017-09-08T21:43:50.120Z,2.70
2017-09-08T21:46:19.220Z,3.22
2017-09-08T21:48:48.207Z,2.53
2017-09-08T21:51:17.306Z,2.83
2017-09-08T21:53:47.363Z,2.33
2017-09-08T21:56:18.359Z,2.85
2017-09-08T21:58:46.793Z,2.58
2017-09-08T22:01:15.130Z,2.80
2017-09-08T22:03:43.340Z,2.35
2017-09-08T22:06:12.345Z,2.35
2017-09-08T22:08:43.442Z,1.87
2017-09-08T22:11:12.627Z,2.50
2017-09-08T22:13:41.712Z,2.50
2017-09-08T22:16:10.000Z,3.00
2017-09-08T22:18:38.272Z,2.42
2017-09-08T22:21:07.341Z,3.08
2017-09-08T22:23:35.568Z,2.83
2017-09-08T22:26:03.780Z,3.00
2017-09-08T22:28:32.008Z,2.53
2017-09-08T22:31:00.627Z,2.65
2017-09-08T22:33:28.881Z,2.55
2017-09-08T22:35:57.119Z,2.28
2017-09-08T22:38:25.407Z,2.10
2017-09-08T22:40:53.736Z,2.30
2017-09-08T22:43:22.325Z,2.67
2017-09-08T22:45:50.610Z,2.47
2017-09-08T22:48:18.820Z,2.85
2017-09-08T22:50:47.026Z,2.60
2017-09-08T22:53:15.243Z,2.72
2017-09-08T22:55:44.683Z,2.55
2017-09-08T22:58:12.897Z,2.70
2017-09-08T23:00:41.097Z,2.97
2017-09-08T23:03:09.448Z,2.42
2017-09-08T23:05:37.695Z,2.35
2017-09-08T23:08:05.877Z,2.62
2017-09-08T23:10:34.099Z,2.30
2017-09-08T23:13:02.328Z,2.80
2017-09-08T23:15:30.547Z,2.85
2017-09-08T23:17:59.569Z,3.00
2017-09-08T23:20:27.797Z,2.62
2017-09-08T23:22:56.873Z,2.97
2017-09-08T23:25:25.079Z,2.22
2017-09-08T23:27:53.361Z,2.55
2017-09-08T23:30:21.566Z,2.60
2017-09-08T23:32:50.152Z,2.72
2017-09-08T23:35:18.532Z,3.05
2017-09-08T23:37:46.762Z,2.58
2017-09-08T23:40:15.763Z,2.50
2017-09-08T23:42:44.822Z,2.42
2017-09-08T23:45:13.040Z,2.70
2017-09-08T23:47:41.297Z,2.40
2017-09-08T23:50:09.927Z,3.00
2017-09-08T23:52:38.127Z,3.95
2017-09-08T23:55:06.345Z,2.72
2017-09-08T23:57:34.579Z,2.80
